Time;durP1;ratioP1;P1;durP2;ratioP2;P2;SDS_P1;SDS_P2;PMS_P1;PMS_P2;Temp;Humidity;BMP_temperature;BMP_pressure;BME280_temperature;BME280_humidity;BME280_pressure;Samples;Min_cycle;Max_cycle;Signal;HPM_P1;HPM_P2
2022/02/23 00:01:14;;;;;;;0.40;0.17;;;;;;;;;;4129674;28;20062;-53
2022/02/23 00:03:15;;;;;;;0.25;0.20;;;;;;;;;;4129119;28;20108;-52
2022/02/23 00:05:17;;;;;;;0.20;0.20;;;;;;;;;;4113884;28;20058;-53
2022/02/23 00:07:17;;;;;;;0.35;0.30;;;;;;;;;;4115190;28;20518;-53
2022/02/23 00:09:19;;;;;;;0.20;0.20;;;;;;;;;;4132742;28;20105;-54
2022/02/23 00:11:20;;;;;;;0.20;0.20;;;;;;;;;;4132637;28;20451;-54
2022/02/23 00:13:21;;;;;;;0.20;0.20;;;;;;;;;;4132283;28;20058;-52
2022/02/23 00:15:22;;;;;;;0.38;0.20;;;;;;;;;;4132655;28;20062;-52
2022/02/23 00:17:25;;;;;;;0.30;0.22;;;;;;;;;;4130770;28;20085;-52
2022/02/23 00:19:26;;;;;;;0.28;0.20;;;;;;;;;;4132771;28;20113;-51
2022/02/23 00:21:27;;;;;;;0.75;0.30;;;;;;;;;;4132845;28;20057;-52
2022/02/23 00:23:28;;;;;;;0.30;0.20;;;;;;;;;;4132419;28;20065;-53
2022/02/23 00:25:29;;;;;;;0.40;0.25;;;;;;;;;;4132245;28;20066;-52
2022/02/23 00:27:31;;;;;;;0.20;0.20;;;;;;;;;;4132157;28;20105;-52
2022/02/23 00:29:32;;;;;;;0.38;0.30;;;;;;;;;;4132342;28;20435;-52
2022/02/23 00:31:33;;;;;;;0.30;0.25;;;;;;;;;;4131113;28;20173;-52
2022/02/23 00:33:34;;;;;;;0.28;0.28;;;;;;;;;;4132005;28;20195;-52
2022/02/23 00:35:35;;;;;;;0.55;0.50;;;;;;;;;;4132125;28;20104;-52
2022/02/23 00:37:36;;;;;;;0.30;0.30;;;;;;;;;;4147226;28;20112;-53
2022/02/23 00:39:38;;;;;;;0.28;0.20;;;;;;;;;;4132223;28;20073;-52
2022/02/23 00:41:39;;;;;;;0.20;0.20;;;;;;;;;;4132110;28;20054;-53
2022/02/23 00:43:40;;;;;;;0.20;0.20;;;;;;;;;;4131062;28;20058;-50
2022/02/23 00:45:41;;;;;;;0.30;0.20;;;;;;;;;;4130774;28;20414;-53
2022/02/23 00:47:42;;;;;;;0.30;0.30;;;;;;;;;;4131856;28;20059;-53
2022/02/23 00:49:43;;;;;;;0.30;0.20;;;;;;;;;;4132021;28;20116;-52
2022/02/23 00:51:44;;;;;;;0.40;0.30;;;;;;;;;;4132051;28;20552;-53
2022/02/23 00:53:45;;;;;;;0.20;0.20;;;;;;;;;;4132065;28;20113;-54
2022/02/23 00:55:47;;;;;;;0.57;0.30;;;;;;;;;;4130859;28;20066;-53
2022/02/23 00:57:48;;;;;;;0.50;0.40;;;;;;;;;;4132183;28;20061;-51
2022/02/23 00:59:50;;;;;;;0.10;0.10;;;;;;;;;;4132055;28;20070;-51
2022/02/23 01:01:51;;;;;;;0.28;0.20;;;;;;;;;;4129812;28;20414;-54
2022/02/23 01:03:52;;;;;;;0.30;0.28;;;;;;;;;;4131908;28;20070;-53
2022/02/23 01:05:54;;;;;;;0.40;0.30;;;;;;;;;;4131923;28;20375;-53
2022/02/23 01:07:55;;;;;;;0.30;0.30;;;;;;;;;;4131862;28;20058;-56
2022/02/23 01:09:56;;;;;;;0.20;0.20;;;;;;;;;;4131868;28;20100;-53
2022/02/23 01:11:57;;;;;;;0.52;0.20;;;;;;;;;;4132085;28;20062;-53
2022/02/23 01:13:58;;;;;;;0.20;0.20;;;;;;;;;;4131793;28;20410;-52
2022/02/23 01:15:59;;;;;;;0.20;0.20;;;;;;;;;;4131252;28;20054;-51
2022/02/23 01:18:01;;;;;;;0.30;0.20;;;;;;;;;;4130938;28;20058;-50
2022/02/23 01:20:03;;;;;;;0.85;0.32;;;;;;;;;;4131609;28;20135;-54
2022/02/23 01:22:05;;;;;;;0.70;0.32;;;;;;;;;;4131552;28;20114;-53
2022/02/23 01:24:07;;;;;;;0.55;0.30;;;;;;;;;;4132136;28;20113;-54
2022/02/23 01:26:08;;;;;;;0.40;0.30;;;;;;;;;;4131545;28;20132;-50
2022/02/23 01:28:10;;;;;;;0.38;0.30;;;;;;;;;;4131723;28;20077;-54
2022/02/23 01:30:12;;;;;;;1.40;0.30;;;;;;;;;;4146437;28;20058;-54
2022/02/23 01:32:13;;;;;;;0.30;0.25;;;;;;;;;;4131472;28;20054;-53
2022/02/23 01:34:14;;;;;;;0.40;0.30;;;;;;;;;;4131514;28;20113;-54
2022/02/23 01:36:15;;;;;;;0.20;0.20;;;;;;;;;;4131428;28;20487;-50
2022/02/23 01:38:16;;;;;;;0.30;0.30;;;;;;;;;;4131257;28;20091;-54
2022/02/23 01:40:18;;;;;;;0.20;0.20;;;;;;;;;;4098128;28;20463;-54
2022/02/23 01:42:20;;;;;;;0.22;0.20;;;;;;;;;;4131528;28;20108;-54
2022/02/23 01:44:21;;;;;;;0.20;0.20;;;;;;;;;;4131332;28;20470;-54
2022/02/23 01:46:22;;;;;;;0.20;0.20;;;;;;;;;;4131379;28;20073;-54
2022/02/23 01:48:23;;;;;;;0.43;0.30;;;;;;;;;;4130631;28;20058;-53
2022/02/23 01:50:24;;;;;;;0.30;0.30;;;;;;;;;;4131425;28;20117;-55
2022/02/23 01:52:26;;;;;;;0.47;0.38;;;;;;;;;;4131051;28;20062;-54
2022/02/23 01:54:27;;;;;;;0.50;0.20;;;;;;;;;;4131129;28;20467;-53
2022/02/23 01:56:31;;;;;;;0.20;0.20;;;;;;;;;;4129949;28;20055;-56
2022/02/23 01:58:33;;;;;;;0.10;0.10;;;;;;;;;;4131039;28;20403;-53
2022/02/23 02:00:34;;;;;;;0.28;0.28;;;;;;;;;;4113552;28;20506;-53
2022/02/23 02:02:35;;;;;;;0.28;0.25;;;;;;;;;;4130469;28;20073;-50
2022/02/23 02:04:36;;;;;;;0.22;0.22;;;;;;;;;;4129940;28;20168;-54
2022/02/23 02:06:37;;;;;;;0.50;0.30;;;;;;;;;;4130905;28;20398;-53
2022/02/23 02:08:38;;;;;;;0.10;0.10;;;;;;;;;;4131271;28;20124;-51
2022/02/23 02:10:40;;;;;;;0.17;0.15;;;;;;;;;;4130937;28;20062;-55
2022/02/23 02:12:43;;;;;;;0.20;0.20;;;;;;;;;;4129488;28;20392;-49
2022/02/23 02:14:44;;;;;;;0.22;0.20;;;;;;;;;;4130802;28;20097;-52
2022/02/23 02:16:46;;;;;;;0.50;0.20;;;;;;;;;;4113188;28;20058;-54
2022/02/23 02:18:47;;;;;;;0.25;0.20;;;;;;;;;;4130822;28;20470;-53
2022/02/23 02:20:48;;;;;;;0.30;0.30;;;;;;;;;;4131131;28;20054;-51
2022/02/23 02:22:49;;;;;;;0.32;0.20;;;;;;;;;;4129235;28;20479;-56
2022/02/23 02:24:50;;;;;;;0.28;0.20;;;;;;;;;;4130710;28;20054;-51
2022/02/23 02:26:51;;;;;;;0.40;0.25;;;;;;;;;;4130302;28;20443;-54
2022/02/23 02:28:53;;;;;;;0.73;0.20;;;;;;;;;;4130447;28;20510;-51
2022/02/23 02:30:54;;;;;;;0.30;0.30;;;;;;;;;;4131127;28;20057;-55
2022/02/23 02:32:55;;;;;;;0.20;0.20;;;;;;;;;;4128702;28;20082;-56
2022/02/23 02:34:56;;;;;;;0.68;0.30;;;;;;;;;;4130496;28;20104;-54
2022/02/23 02:36:57;;;;;;;0.22;0.20;;;;;;;;;;4145320;28;20587;-54
2022/02/23 02:38:58;;;;;;;0.30;0.30;;;;;;;;;;4130610;28;20526;-58
2022/02/23 02:41:00;;;;;;;0.30;0.30;;;;;;;;;;4113121;28;20062;-54
2022/02/23 02:43:07;;;;;;;0.65;0.30;;;;;;;;;;4145221;28;20084;-54
2022/02/23 02:45:08;;;;;;;0.40;0.25;;;;;;;;;;4130596;28;20101;-54
2022/02/23 02:47:09;;;;;;;0.45;0.28;;;;;;;;;;4129693;28;20498;-55
2022/02/23 02:49:11;;;;;;;1.52;0.30;;;;;;;;;;4129167;28;20062;-55
2022/02/23 02:51:12;;;;;;;0.20;0.20;;;;;;;;;;4130518;28;20058;-55
2022/02/23 02:53:13;;;;;;;0.30;0.25;;;;;;;;;;4145164;28;20477;-52
2022/02/23 02:55:14;;;;;;;0.20;0.15;;;;;;;;;;4130493;28;20054;-53
2022/02/23 02:57:16;;;;;;;0.50;0.40;;;;;;;;;;4130131;28;20557;-54
2022/02/23 02:59:17;;;;;;;0.32;0.30;;;;;;;;;;4130343;28;20066;-52
2022/02/23 03:01:23;;;;;;;0.55;0.15;;;;;;;;;;4130258;28;20058;-52
2022/02/23 03:03:24;;;;;;;0.35;0.30;;;;;;;;;;4129604;28;20054;-55
2022/02/23 03:05:25;;;;;;;0.45;0.28;;;;;;;;;;4130281;28;20058;-49
2022/02/23 03:07:26;;;;;;;0.20;0.20;;;;;;;;;;4128492;28;20093;-53
2022/02/23 03:09:27;;;;;;;0.60;0.30;;;;;;;;;;4130447;28;20112;-54
2022/02/23 03:11:29;;;;;;;0.40;0.30;;;;;;;;;;4130117;28;20430;-52
2022/02/23 03:13:30;;;;;;;0.30;0.30;;;;;;;;;;4144955;28;20096;-53
2022/02/23 03:15:31;;;;;;;0.20;0.20;;;;;;;;;;4144928;28;20120;-53
2022/02/23 03:17:32;;;;;;;0.20;0.20;;;;;;;;;;4128123;28;20185;-51
2022/02/23 03:19:33;;;;;;;0.40;0.28;;;;;;;;;;4129930;28;20050;-50
2022/02/23 03:21:34;;;;;;;0.50;0.20;;;;;;;;;;4129820;28;20407;-53
2022/02/23 03:23:36;;;;;;;0.32;0.30;;;;;;;;;;4130104;28;20054;-52
2022/02/23 03:25:37;;;;;;;0.40;0.20;;;;;;;;;;4129773;28;20066;-53
2022/02/23 03:27:39;;;;;;;0.30;0.20;;;;;;;;;;4129754;28;20054;-53
2022/02/23 03:29:40;;;;;;;0.20;0.20;;;;;;;;;;4129820;28;20066;-50
2022/02/23 03:31:41;;;;;;;0.52;0.20;;;;;;;;;;4129387;28;20112;-52
2022/02/23 03:33:46;;;;;;;0.45;0.20;;;;;;;;;;4129773;28;20085;-57
2022/02/23 03:35:47;;;;;;;0.52;0.38;;;;;;;;;;4128333;28;20514;-55
2022/02/23 03:37:48;;;;;;;0.93;0.17;;;;;;;;;;4129631;28;20054;-53
2022/02/23 03:39:49;;;;;;;0.20;0.20;;;;;;;;;;4130808;28;20136;-54
2022/02/23 03:41:50;;;;;;;0.20;0.20;;;;;;;;;;4115745;28;20054;-50
2022/02/23 03:43:52;;;;;;;0.20;0.20;;;;;;;;;;4133113;28;20507;-52
2022/02/23 03:45:53;;;;;;;0.10;0.10;;;;;;;;;;4133052;28;20058;-51
2022/02/23 03:47:54;;;;;;;0.85;0.45;;;;;;;;;;4132424;28;20355;-52
2022/02/23 03:49:55;;;;;;;0.20;0.20;;;;;;;;;;4115561;28;20113;-52
2022/02/23 03:51:56;;;;;;;0.30;0.20;;;;;;;;;;4133164;28;20161;-53
2022/02/23 03:53:57;;;;;;;0.20;0.20;;;;;;;;;;4132992;28;20061;-50
2022/02/23 03:55:58;;;;;;;0.50;0.30;;;;;;;;;;4132793;28;20168;-49
2022/02/23 03:57:59;;;;;;;0.17;0.13;;;;;;;;;;4131465;28;20112;-52
2022/02/23 04:00:01;;;;;;;0.20;0.20;;;;;;;;;;4133082;28;20058;-55
2022/02/23 04:02:02;;;;;;;0.50;0.40;;;;;;;;;;4115233;28;20154;-51
2022/02/23 04:04:04;;;;;;;0.45;0.30;;;;;;;;;;4132766;28;20050;-52
2022/02/23 04:06:05;;;;;;;0.75;0.20;;;;;;;;;;4131630;28;20054;-52
2022/02/23 04:08:06;;;;;;;0.30;0.30;;;;;;;;;;4132722;28;20050;-50
2022/02/23 04:10:08;;;;;;;0.68;0.40;;;;;;;;;;4132631;28;20050;-53
2022/02/23 04:12:09;;;;;;;0.30;0.13;;;;;;;;;;4132543;28;20195;-56
2022/02/23 04:14:11;;;;;;;0.52;0.20;;;;;;;;;;4132596;28;20161;-52
2022/02/23 04:16:12;;;;;;;0.75;0.20;;;;;;;;;;4132805;28;20051;-50
2022/02/23 04:18:13;;;;;;;0.13;0.13;;;;;;;;;;4132125;28;20061;-61
2022/02/23 04:20:14;;;;;;;0.30;0.30;;;;;;;;;;4132720;28;20054;-63
2022/02/23 04:22:15;;;;;;;0.25;0.25;;;;;;;;;;4132341;28;20077;-61
2022/02/23 04:24:16;;;;;;;0.50;0.30;;;;;;;;;;4132478;28;20458;-63
2022/02/23 04:26:18;;;;;;;0.30;0.30;;;;;;;;;;4132311;28;20204;-63
2022/02/23 04:28:19;;;;;;;0.50;0.28;;;;;;;;;;4132488;28;20054;-64
2022/02/23 04:30:20;;;;;;;0.20;0.20;;;;;;;;;;4132415;28;20130;-62
2022/02/23 04:32:21;;;;;;;0.35;0.20;;;;;;;;;;4131815;28;20054;-63
2022/02/23 04:34:22;;;;;;;0.30;0.20;;;;;;;;;;4132237;28;20141;-64
2022/02/23 04:36:23;;;;;;;0.20;0.20;;;;;;;;;;4132343;28;20074;-64
2022/02/23 04:38:25;;;;;;;0.20;0.20;;;;;;;;;;4132389;28;20054;-63
2022/02/23 04:40:26;;;;;;;0.25;0.25;;;;;;;;;;4132103;28;20121;-63
2022/02/23 04:42:28;;;;;;;0.30;0.30;;;;;;;;;;4132113;28;20061;-62
2022/02/23 04:44:29;;;;;;;0.30;0.25;;;;;;;;;;4132256;28;20054;-64
2022/02/23 04:46:30;;;;;;;0.60;0.30;;;;;;;;;;4132068;28;20498;-63
2022/02/23 04:48:31;;;;;;;0.20;0.20;;;;;;;;;;4131604;28;20447;-58
2022/02/23 04:50:33;;;;;;;0.38;0.38;;;;;;;;;;4131781;28;20105;-64
2022/02/23 04:52:34;;;;;;;0.30;0.30;;;;;;;;;;4129828;28;20054;-62
2022/02/23 04:54:36;;;;;;;0.80;0.52;;;;;;;;;;4114649;28;20097;-64
2022/02/23 04:56:37;;;;;;;0.40;0.30;;;;;;;;;;4131843;28;20066;-63
2022/02/23 04:58:38;;;;;;;0.22;0.20;;;;;;;;;;4132143;28;20054;-62
2022/02/23 05:00:41;;;;;;;0.20;0.20;;;;;;;;;;4114819;28;20061;-64
2022/02/23 05:02:42;;;;;;;0.25;0.25;;;;;;;;;;4131478;28;20058;-64
2022/02/23 05:04:44;;;;;;;0.20;0.20;;;;;;;;;;4131904;28;20066;-63
2022/02/23 05:06:45;;;;;;;0.82;0.30;;;;;;;;;;4131601;28;20055;-63
2022/02/23 05:08:46;;;;;;;0.30;0.20;;;;;;;;;;4131820;28;20100;-64
2022/02/23 05:10:47;;;;;;;0.28;0.20;;;;;;;;;;4131706;28;20129;-63
2022/02/23 05:12:52;;;;;;;0.25;0.17;;;;;;;;;;4131622;28;20495;-64
2022/02/23 05:14:53;;;;;;;0.28;0.20;;;;;;;;;;4131568;28;20066;-61
2022/02/23 05:16:54;;;;;;;0.40;0.40;;;;;;;;;;4131499;28;20054;-64
2022/02/23 05:18:55;;;;;;;0.63;0.22;;;;;;;;;;4131629;28;20545;-64
2022/02/23 05:20:58;;;;;;;0.30;0.20;;;;;;;;;;4131483;28;20051;-62
2022/02/23 05:22:59;;;;;;;0.20;0.20;;;;;;;;;;4113959;28;20495;-60
2022/02/23 05:25:01;;;;;;;0.20;0.20;;;;;;;;;;4114082;28;20102;-63
2022/02/23 05:27:03;;;;;;;0.65;0.20;;;;;;;;;;4131204;28;20077;-64
2022/02/23 05:29:04;;;;;;;0.70;0.30;;;;;;;;;;4131472;28;20411;-64
2022/02/23 05:31:05;;;;;;;0.28;0.28;;;;;;;;;;4130145;28;20054;-64
2022/02/23 05:33:06;;;;;;;0.20;0.20;;;;;;;;;;4130632;28;20058;-63
2022/02/23 05:35:08;;;;;;;0.47;0.20;;;;;;;;;;4129346;28;20058;-64
2022/02/23 05:37:09;;;;;;;0.40;0.40;;;;;;;;;;4114897;28;20077;-61
2022/02/23 05:39:10;;;;;;;0.50;0.40;;;;;;;;;;4115459;28;20066;-63
2022/02/23 05:41:11;;;;;;;0.38;0.30;;;;;;;;;;4114916;28;20097;-63
2022/02/23 05:43:13;;;;;;;0.40;0.22;;;;;;;;;;4113689;28;20078;-63
2022/02/23 05:45:14;;;;;;;0.30;0.20;;;;;;;;;;4125385;28;20058;-63
2022/02/23 05:47:15;;;;;;;0.15;0.15;;;;;;;;;;4129335;28;20108;-62
2022/02/23 05:49:16;;;;;;;0.13;0.13;;;;;;;;;;4130275;28;20085;-64
2022/02/23 05:51:28;;;;;;;0.20;0.20;;;;;;;;;;4131243;28;20081;-64
2022/02/23 05:53:29;;;;;;;0.20;0.20;;;;;;;;;;4131049;28;20073;-62
2022/02/23 05:55:30;;;;;;;0.28;0.28;;;;;;;;;;4113771;28;20071;-64
2022/02/23 05:57:32;;;;;;;0.30;0.30;;;;;;;;;;4113831;28;20105;-63
2022/02/23 05:59:33;;;;;;;0.40;0.32;;;;;;;;;;4131318;28;20108;-63
2022/02/23 06:01:37;;;;;;;0.20;0.13;;;;;;;;;;4128112;28;20054;-56
2022/02/23 06:03:38;;;;;;;0.20;0.20;;;;;;;;;;4128564;28;20062;-61
2022/02/23 06:05:39;;;;;;;0.22;0.22;;;;;;;;;;4129008;28;20501;-63
2022/02/23 06:07:41;;;;;;;0.40;0.30;;;;;;;;;;4128706;28;20055;-64
2022/02/23 06:09:42;;;;;;;0.45;0.30;;;;;;;;;;4127729;28;20521;-64
2022/02/23 06:11:43;;;;;;;0.20;0.20;;;;;;;;;;4128766;28;20054;-59
2022/02/23 06:13:50;;;;;;;0.20;0.20;;;;;;;;;;4128629;28;20557;-64
2022/02/23 06:15:51;;;;;;;0.65;0.40;;;;;;;;;;4129091;28;20650;-62
2022/02/23 06:17:53;;;;;;;0.20;0.20;;;;;;;;;;4128284;28;20531;-63
2022/02/23 06:19:54;;;;;;;0.38;0.30;;;;;;;;;;4128725;28;20065;-62
2022/02/23 06:21:55;;;;;;;0.30;0.22;;;;;;;;;;4128782;28;20058;-63
2022/02/23 06:23:56;;;;;;;0.47;0.22;;;;;;;;;;4111298;28;20063;-60
2022/02/23 06:25:57;;;;;;;0.68;0.35;;;;;;;;;;4111129;28;20070;-61
2022/02/23 06:27:58;;;;;;;0.35;0.35;;;;;;;;;;4128797;28;20058;-62
2022/02/23 06:29:59;;;;;;;0.30;0.25;;;;;;;;;;4110799;28;20084;-64
2022/02/23 06:32:03;;;;;;;0.50;0.30;;;;;;;;;;4112874;28;20067;-61
2022/02/23 06:34:04;;;;;;;0.70;0.40;;;;;;;;;;4124674;28;20112;-63
2022/02/23 06:36:05;;;;;;;0.35;0.20;;;;;;;;;;4126204;28;20467;-63
2022/02/23 06:38:06;;;;;;;0.22;0.22;;;;;;;;;;4128072;28;20046;-64
2022/02/23 06:40:08;;;;;;;0.35;0.30;;;;;;;;;;4126158;28;20066;-63
2022/02/23 06:42:10;;;;;;;0.50;0.30;;;;;;;;;;4128197;28;20062;-61
2022/02/23 06:44:11;;;;;;;0.52;0.35;;;;;;;;;;4109614;28;20070;-61
2022/02/23 06:46:13;;;;;;;0.30;0.30;;;;;;;;;;4122881;28;20109;-63
2022/02/23 06:48:14;;;;;;;0.50;0.40;;;;;;;;;;4109420;28;20066;-62
2022/02/23 06:50:16;;;;;;;0.50;0.30;;;;;;;;;;4111120;28;20125;-61
2022/02/23 06:52:19;;;;;;;1.10;0.40;;;;;;;;;;4104350;28;20051;-62
2022/02/23 06:54:20;;;;;;;0.38;0.38;;;;;;;;;;4104204;28;20063;-63
2022/02/23 06:56:21;;;;;;;0.93;0.40;;;;;;;;;;4111816;28;20112;-63
2022/02/23 06:58:22;;;;;;;0.57;0.40;;;;;;;;;;4104864;28;20719;-60
2022/02/23 07:00:25;;;;;;;0.40;0.40;;;;;;;;;;4108244;28;20054;-65
2022/02/23 07:02:26;;;;;;;0.55;0.55;;;;;;;;;;4114331;28;20062;-60
2022/02/23 07:04:27;;;;;;;0.30;0.30;;;;;;;;;;4104751;28;20062;-63
2022/02/23 07:06:28;;;;;;;0.70;0.43;;;;;;;;;;4092735;28;20194;-63
2022/02/23 07:08:29;;;;;;;0.22;0.20;;;;;;;;;;4111002;28;20656;-60
2022/02/23 07:10:31;;;;;;;0.20;0.20;;;;;;;;;;4110963;28;20069;-60
2022/02/23 07:12:34;;;;;;;0.40;0.30;;;;;;;;;;4079708;28;20060;-63
2022/02/23 07:14:35;;;;;;;0.30;0.20;;;;;;;;;;4107798;28;20105;-63
2022/02/23 07:16:37;;;;;;;0.57;0.40;;;;;;;;;;4105013;28;20051;-60
2022/02/23 07:18:39;;;;;;;0.65;0.55;;;;;;;;;;4104274;28;20058;-63
2022/02/23 07:20:40;;;;;;;0.30;0.30;;;;;;;;;;4113982;28;20124;-62
2022/02/23 07:22:41;;;;;;;2.28;0.50;;;;;;;;;;4101246;28;20066;-61
2022/02/23 07:24:42;;;;;;;0.40;0.40;;;;;;;;;;4099316;28;20058;-64
2022/02/23 07:26:43;;;;;;;0.70;0.40;;;;;;;;;;4106465;28;20072;-60
2022/02/23 07:28:45;;;;;;;0.98;0.30;;;;;;;;;;4115051;28;20063;-59
2022/02/23 07:30:46;;;;;;;1.00;0.40;;;;;;;;;;4107132;28;20141;-61
2022/02/23 07:32:47;;;;;;;1.10;0.55;;;;;;;;;;4104584;28;20066;-63
2022/02/23 07:34:50;;;;;;;1.10;0.30;;;;;;;;;;4095788;28;20075;-59
2022/02/23 07:36:51;;;;;;;0.88;0.40;;;;;;;;;;4118156;28;20495;-64
2022/02/23 07:38:53;;;;;;;0.47;0.40;;;;;;;;;;4117148;28;20060;-62
2022/02/23 07:40:55;;;;;;;0.85;0.38;;;;;;;;;;4119587;28;20089;-61
2022/02/23 07:42:56;;;;;;;0.60;0.30;;;;;;;;;;4115963;28;20131;-61
2022/02/23 07:44:57;;;;;;;0.60;0.40;;;;;;;;;;4121181;28;20066;-53
2022/02/23 07:46:58;;;;;;;0.25;0.25;;;;;;;;;;4121520;28;20053;-62
2022/02/23 07:49:00;;;;;;;0.75;0.40;;;;;;;;;;4103129;28;20085;-60
2022/02/23 07:51:03;;;;;;;0.65;0.30;;;;;;;;;;4120043;28;20113;-60
2022/02/23 07:53:05;;;;;;;0.50;0.30;;;;;;;;;;4116005;28;20356;-62
2022/02/23 07:55:06;;;;;;;0.30;0.30;;;;;;;;;;4081716;28;20113;-62
2022/02/23 07:57:07;;;;;;;0.45;0.30;;;;;;;;;;4111645;28;20911;-60
2022/02/23 07:59:09;;;;;;;0.43;0.40;;;;;;;;;;4116428;28;20414;-61
2022/02/23 08:01:33;;;;;;;0.28;0.20;;;;;;;;;;4092001;28;20070;-60
2022/02/23 08:03:35;;;;;;;2.53;0.28;;;;;;;;;;4104069;28;20074;-60
2022/02/23 08:05:37;;;;;;;1.13;0.40;;;;;;;;;;4113891;28;20546;-63
2022/02/23 08:07:38;;;;;;;0.85;0.60;;;;;;;;;;4116951;28;20058;-57
2022/02/23 08:09:39;;;;;;;0.43;0.32;;;;;;;;;;4101308;28;20070;-60
2022/02/23 08:11:41;;;;;;;0.60;0.40;;;;;;;;;;4100600;28;20067;-61
2022/02/23 08:13:42;;;;;;;0.40;0.30;;;;;;;;;;4096359;28;20054;-63
2022/02/23 08:20:23;;;;;;;0.30;0.30;;;;;;;;;;4113036;28;19980;-60
2022/02/23 08:22:29;;;;;;;0.88;0.47;;;;;;;;;;4118149;28;20410;-63
2022/02/23 08:24:30;;;;;;;0.40;0.32;;;;;;;;;;4116244;28;20063;-59
2022/02/23 08:26:32;;;;;;;0.35;0.30;;;;;;;;;;4099206;28;20245;-62
2022/02/23 08:28:33;;;;;;;1.30;0.40;;;;;;;;;;4094764;28;20078;-63
2022/02/23 08:30:34;;;;;;;0.45;0.40;;;;;;;;;;4086647;28;20058;-60
2022/02/23 08:32:35;;;;;;;0.50;0.40;;;;;;;;;;4100468;28;20165;-56
2022/02/23 08:34:38;;;;;;;0.30;0.30;;;;;;;;;;4098877;28;20058;-59
2022/02/23 08:36:39;;;;;;;0.47;0.40;;;;;;;;;;4072746;28;21011;-60
2022/02/23 08:38:41;;;;;;;0.95;0.50;;;;;;;;;;4081608;28;20102;-60
2022/02/23 08:40:44;;;;;;;1.48;0.50;;;;;;;;;;4098181;28;20495;-60
2022/02/23 08:42:46;;;;;;;0.47;0.30;;;;;;;;;;4072942;28;20064;-56
2022/02/23 08:44:47;;;;;;;2.40;0.30;;;;;;;;;;4089531;28;20335;-62
2022/02/23 08:46:49;;;;;;;0.30;0.30;;;;;;;;;;4081505;28;20117;-62
2022/02/23 08:48:50;;;;;;;0.50;0.32;;;;;;;;;;4096249;28;20122;-60
2022/02/23 08:50:51;;;;;;;3.30;0.35;;;;;;;;;;4071927;29;20173;-59
2022/02/23 08:52:52;;;;;;;0.43;0.28;;;;;;;;;;4093253;28;21882;-58
2022/02/23 08:54:53;;;;;;;1.48;0.32;;;;;;;;;;4098032;28;20144;-60
2022/02/23 08:56:54;;;;;;;0.35;0.30;;;;;;;;;;4115587;28;20147;-60
2022/02/23 08:58:55;;;;;;;0.20;0.20;;;;;;;;;;4096235;28;20059;-60
2022/02/23 09:00:57;;;;;;;0.30;0.20;;;;;;;;;;4091396;28;20811;-58
2022/02/23 09:02:58;;;;;;;0.50;0.28;;;;;;;;;;4085963;28;20070;-60
2022/02/23 09:04:59;;;;;;;0.47;0.20;;;;;;;;;;4087862;28;20163;-58
2022/02/23 09:07:00;;;;;;;1.92;0.40;;;;;;;;;;4097671;28;20058;-60
2022/02/23 09:09:03;;;;;;;0.15;0.13;;;;;;;;;;4107304;28;20113;-61
2022/02/23 09:11:04;;;;;;;0.73;0.30;;;;;;;;;;4099181;28;20459;-61
2022/02/23 09:13:07;;;;;;;0.22;0.20;;;;;;;;;;4098852;28;20113;-62
2022/02/23 09:15:11;;;;;;;0.15;0.10;;;;;;;;;;4099127;28;20063;-61
2022/02/23 09:17:12;;;;;;;0.60;0.20;;;;;;;;;;4094732;28;20065;-61
2022/02/23 09:19:14;;;;;;;0.60;0.30;;;;;;;;;;4101682;28;20118;-62
2022/02/23 09:21:16;;;;;;;2.45;0.30;;;;;;;;;;4101555;28;20058;-59
2022/02/23 09:23:18;;;;;;;0.25;0.15;;;;;;;;;;4103346;28;20145;-61
2022/02/23 09:25:20;;;;;;;0.60;0.30;;;;;;;;;;4101793;28;20566;-61
2022/02/23 09:27:21;;;;;;;1.17;0.20;;;;;;;;;;4111039;28;20066;-59
2022/02/23 09:29:24;;;;;;;1.00;0.40;;;;;;;;;;4115666;28;20112;-60
2022/02/23 09:31:26;;;;;;;1.55;0.30;;;;;;;;;;4123264;28;20059;-58
2022/02/23 09:33:27;;;;;;;0.32;0.20;;;;;;;;;;4102789;28;20170;-60
2022/02/23 09:35:29;;;;;;;0.85;0.30;;;;;;;;;;4116601;28;20066;-55
2022/02/23 09:37:31;;;;;;;0.63;0.20;;;;;;;;;;4115357;28;20105;-59
2022/02/23 09:39:32;;;;;;;0.55;0.20;;;;;;;;;;4113635;28;20066;-61
2022/02/23 09:41:34;;;;;;;0.20;0.20;;;;;;;;;;4115976;28;20062;-60
2022/02/23 09:43:36;;;;;;;0.30;0.20;;;;;;;;;;4120886;28;20494;-62
2022/02/23 09:45:41;;;;;;;0.30;0.30;;;;;;;;;;4117185;28;20097;-57
2022/02/23 09:47:43;;;;;;;1.27;0.35;;;;;;;;;;4113189;28;20085;-66
2022/02/23 09:49:46;;;;;;;0.82;0.20;;;;;;;;;;4113482;28;20066;-63
2022/02/23 09:51:47;;;;;;;1.83;0.38;;;;;;;;;;4098152;28;20483;-61
2022/02/23 09:53:49;;;;;;;0.77;0.30;;;;;;;;;;4118292;28;20134;-61
2022/02/23 09:55:56;;;;;;;0.30;0.30;;;;;;;;;;4116604;28;20093;-62
2022/02/23 09:57:57;;;;;;;0.82;0.40;;;;;;;;;;4114517;28;20482;-66
2022/02/23 09:59:58;;;;;;;0.32;0.30;;;;;;;;;;4100048;28;20289;-60
2022/02/23 10:02:00;;;;;;;0.22;0.22;;;;;;;;;;4115351;28;20058;-63
2022/02/23 10:04:01;;;;;;;0.55;0.38;;;;;;;;;;4114305;28;20066;-63
2022/02/23 10:06:02;;;;;;;0.60;0.30;;;;;;;;;;4103516;28;20133;-61
2022/02/23 10:08:05;;;;;;;0.35;0.20;;;;;;;;;;4116929;28;20805;-65
2022/02/23 10:10:11;;;;;;;0.73;0.38;;;;;;;;;;4114541;28;20388;-64
2022/02/23 10:12:20;;;;;;;0.30;0.30;;;;;;;;;;4120822;28;20053;-63
2022/02/23 10:14:21;;;;;;;1.48;0.50;;;;;;;;;;4121435;28;20117;-63
2022/02/23 10:16:30;;;;;;;1.08;0.32;;;;;;;;;;4115896;28;20141;-57
2022/02/23 10:18:31;;;;;;;0.70;0.52;;;;;;;;;;4117693;28;20493;-61
2022/02/23 10:20:36;;;;;;;0.55;0.32;;;;;;;;;;4120739;28;20120;-61
2022/02/23 10:22:44;;;;;;;0.40;0.40;;;;;;;;;;4119777;28;20457;-64
2022/02/23 10:24:45;;;;;;;0.82;0.40;;;;;;;;;;4111437;28;20067;-64
2022/02/23 10:26:57;;;;;;;0.45;0.40;;;;;;;;;;4120009;28;20059;-63
2022/02/23 10:29:00;;;;;;;0.57;0.47;;;;;;;;;;4115683;28;20058;-59
2022/02/23 10:31:09;;;;;;;0.50;0.40;;;;;;;;;;4126355;28;20067;-63
2022/02/23 10:33:15;;;;;;;0.85;0.40;;;;;;;;;;4120693;28;20124;-61
2022/02/23 10:35:25;;;;;;;0.28;0.28;;;;;;;;;;4112116;28;20118;-62
2022/02/23 10:37:27;;;;;;;0.55;0.40;;;;;;;;;;4118917;28;20434;-60
2022/02/23 10:39:36;;;;;;;1.13;0.60;;;;;;;;;;4121810;28;20576;-61
2022/02/23 10:41:42;;;;;;;0.50;0.30;;;;;;;;;;4114242;28;20071;-59
2022/02/23 10:43:46;;;;;;;0.73;0.65;;;;;;;;;;4122227;28;20066;-64
2022/02/23 10:45:51;;;;;;;0.43;0.43;;;;;;;;;;4112894;28;20065;-63
2022/02/23 10:47:53;;;;;;;0.80;0.50;;;;;;;;;;4119410;28;20054;-59
2022/02/23 10:50:02;;;;;;;0.80;0.50;;;;;;;;;;4119824;28;20356;-58
2022/02/23 10:52:07;;;;;;;0.22;0.22;;;;;;;;;;4122508;28;20057;-65
2022/02/23 10:54:10;;;;;;;0.40;0.30;;;;;;;;;;4121240;28;20443;-68
2022/02/23 10:56:22;;;;;;;1.02;0.47;;;;;;;;;;4115676;28;20477;-64
2022/02/23 10:58:25;;;;;;;0.35;0.30;;;;;;;;;;4121760;28;20291;-65
2022/02/23 11:00:39;;;;;;;0.77;0.30;;;;;;;;;;4124113;28;20062;-65
2022/02/23 11:02:40;;;;;;;0.50;0.47;;;;;;;;;;4124476;28;20054;-65
2022/02/23 11:04:41;;;;;;;0.20;0.20;;;;;;;;;;4123029;28;20888;-63
2022/02/23 11:06:42;;;;;;;0.80;0.50;;;;;;;;;;4121733;28;20157;-62
2022/02/23 11:08:49;;;;;;;0.30;0.20;;;;;;;;;;4121122;28;20062;-65
2022/02/23 11:10:50;;;;;;;0.50;0.40;;;;;;;;;;4121236;28;20108;-66
2022/02/23 11:12:54;;;;;;;0.25;0.25;;;;;;;;;;4093496;28;20128;-67
2022/02/23 11:14:55;;;;;;;0.68;0.40;;;;;;;;;;4119597;28;20081;-65
2022/02/23 11:16:59;;;;;;;0.20;0.20;;;;;;;;;;4113690;28;20066;-62
2022/02/23 11:19:02;;;;;;;0.35;0.28;;;;;;;;;;4117778;28;20125;-65
2022/02/23 11:21:04;;;;;;;0.60;0.30;;;;;;;;;;4120054;28;20431;-63
2022/02/23 11:23:05;;;;;;;0.30;0.20;;;;;;;;;;4120402;28;20057;-64
2022/02/23 11:25:07;;;;;;;0.57;0.35;;;;;;;;;;4118119;28;20062;-66
2022/02/23 11:27:12;;;;;;;0.20;0.20;;;;;;;;;;4117892;28;20540;-67
2022/02/23 11:29:19;;;;;;;0.35;0.35;;;;;;;;;;4117994;28;20054;-64
2022/02/23 11:31:20;;;;;;;0.30;0.17;;;;;;;;;;4119265;28;20058;-62
2022/02/23 11:33:27;;;;;;;0.77;0.30;;;;;;;;;;4106949;28;20058;-59
2022/02/23 11:35:49;;;;;;;1.50;0.40;;;;;;;;;;4116109;28;20557;-63
2022/02/23 11:37:57;;;;;;;2.97;0.38;;;;;;;;;;4121799;28;20556;-66
2022/02/23 11:39:58;;;;;;;0.50;0.30;;;;;;;;;;4119633;28;20193;-64
2022/02/23 11:42:03;;;;;;;1.55;0.30;;;;;;;;;;4116579;28;20050;-67
2022/02/23 11:44:08;;;;;;;0.17;0.17;;;;;;;;;;4117256;28;20502;-62
2022/02/23 11:46:27;;;;;;;0.98;0.30;;;;;;;;;;4116307;28;20092;-57
2022/02/23 11:48:46;;;;;;;0.40;0.20;;;;;;;;;;4117068;28;20062;-57
2022/02/23 11:51:24;;;;;;;0.15;0.10;;;;;;;;;;4103768;28;20057;-59
2022/02/23 11:53:37;;;;;;;0.22;0.22;;;;;;;;;;4120525;28;20112;-61
2022/02/23 11:59:12;;;;;;;0.65;0.30;;;;;;;;;;4114044;28;20344;-58
2022/02/23 12:01:14;;;;;;;0.43;0.30;;;;;;;;;;4106343;28;20438;-61
2022/02/23 12:03:28;;;;;;;0.20;0.20;;;;;;;;;;4116469;28;20084;-60
2022/02/23 12:05:33;;;;;;;0.63;0.30;;;;;;;;;;4121585;28;20105;-55
2022/02/23 12:07:48;;;;;;;0.22;0.20;;;;;;;;;;4122213;28;20499;-61
2022/02/23 12:09:52;;;;;;;0.98;0.20;;;;;;;;;;4125642;28;20065;-60
2022/02/23 12:12:12;;;;;;;0.55;0.30;;;;;;;;;;4121902;28;20058;-58
2022/02/23 12:14:16;;;;;;;0.38;0.20;;;;;;;;;;4122293;28;20062;-59
2022/02/23 12:16:24;;;;;;;0.25;0.20;;;;;;;;;;4121391;28;20120;-57
2022/02/23 12:18:27;;;;;;;0.15;0.15;;;;;;;;;;4122728;28;20055;-55
2022/02/23 12:20:37;;;;;;;0.40;0.20;;;;;;;;;;4117865;28;20145;-53
2022/02/23 12:23:01;;;;;;;0.38;0.20;;;;;;;;;;4118064;28;20632;-59